createdAt,value
2023-03-08T00:01:31.400Z,3.52
2023-03-08T00:04:00.743Z,3.55
2023-03-08T00:06:28.862Z,3.51
2023-03-08T00:09:02.089Z,3.50
2023-03-08T00:11:30.806Z,3.44
2023-03-08T00:13:58.955Z,3.47
2023-03-08T00:16:26.968Z,3.49
2023-03-08T00:18:54.931Z,3.43
2023-03-08T00:21:23.117Z,3.41
2023-03-08T00:23:54.453Z,3.39
2023-03-08T00:26:22.550Z,3.38
2023-03-08T00:28:50.655Z,3.35
2023-03-08T00:31:18.722Z,3.33
2023-03-08T00:33:46.661Z,3.19
2023-03-08T00:36:19.828Z,3.19
2023-03-08T00:38:50.402Z,3.11
2023-03-08T00:41:19.060Z,3.23
2023-03-08T00:43:46.953Z,3.10
2023-03-08T00:46:15.793Z,2.96
2023-03-08T00:48:44.160Z,3.05
2023-03-08T00:51:16.313Z,3.09
2023-03-08T00:53:45.290Z,2.98
2023-03-08T00:56:13.980Z,3.10
2023-03-08T00:58:42.642Z,3.13
2023-03-08T01:01:18.068Z,3.17
2023-03-08T01:03:46.688Z,3.10
2023-03-08T01:06:15.973Z,3.12
2023-03-08T01:08:44.634Z,3.15
2023-03-08T01:11:24.497Z,3.19
2023-03-08T01:13:54.321Z,3.14
2023-03-08T01:16:32.418Z,3.22
2023-03-08T01:19:04.102Z,3.24
2023-03-08T01:21:32.672Z,3.14
2023-03-08T01:24:00.696Z,3.18
2023-03-08T01:26:28.654Z,3.18
2023-03-08T01:28:58.355Z,3.13
2023-03-08T01:31:29.894Z,2.95
2023-03-08T01:33:58.804Z,3.01
2023-03-08T01:36:29.348Z,2.99
2023-03-08T01:39:01.364Z,3.01
2023-03-08T01:41:31.969Z,3.02
2023-03-08T01:44:00.278Z,2.99
2023-03-08T01:46:36.542Z,2.83
2023-03-08T01:49:33.300Z,2.65
2023-03-08T01:52:14.883Z,2.82
2023-03-08T01:54:56.513Z,2.83
2023-03-08T01:57:37.214Z,2.78
2023-03-08T02:00:17.197Z,2.78
2023-03-08T02:03:08.399Z,2.81
2023-03-08T02:05:44.423Z,2.96
2023-03-08T02:08:12.381Z,2.93
2023-03-08T02:10:40.345Z,3.02
2023-03-08T02:13:08.944Z,3.06
2023-03-08T02:15:37.142Z,2.80
2023-03-08T02:18:05.076Z,3.00
2023-03-08T02:20:44.741Z,2.98
2023-03-08T02:23:21.278Z,3.08
2023-03-08T02:26:04.675Z,3.08
2023-03-08T02:28:33.483Z,3.11
2023-03-08T02:31:01.653Z,3.14
2023-03-08T02:33:31.146Z,3.07
2023-03-08T02:36:00.754Z,3.05
2023-03-08T02:38:29.588Z,3.00
2023-03-08T02:40:57.648Z,3.04
2023-03-08T02:43:25.871Z,3.04
2023-03-08T02:45:56.326Z,2.85
2023-03-08T02:48:24.215Z,2.92
2023-03-08T02:50:52.184Z,2.97
2023-03-08T02:53:20.066Z,3.04
2023-03-08T02:55:48.034Z,3.03
2023-03-08T02:58:15.973Z,3.16
2023-03-08T03:00:43.938Z,3.12
2023-03-08T03:03:11.952Z,3.09
2023-03-08T03:05:46.150Z,3.13
2023-03-08T03:08:14.049Z,3.18
2023-03-08T03:10:41.919Z,3.31
2023-03-08T03:13:09.911Z,3.11
2023-03-08T03:15:39.969Z,3.32
2023-03-08T03:18:08.172Z,3.36
2023-03-08T03:20:36.161Z,3.28
2023-03-08T03:23:04.120Z,3.21
2023-03-08T03:25:32.436Z,3.30
2023-03-08T03:28:00.306Z,3.35
2023-03-08T03:30:28.153Z,3.40
2023-03-08T03:32:56.047Z,3.09
2023-03-08T03:35:23.934Z,3.16
2023-03-08T03:37:51.799Z,3.13
2023-03-08T03:40:19.806Z,2.80
2023-03-08T03:42:49.920Z,2.84
2023-03-08T03:45:18.038Z,2.97
2023-03-08T03:47:47.246Z,2.01
2023-03-08T03:50:15.190Z,2.42
2023-03-08T03:52:43.116Z,3.03
2023-03-08T03:55:11.059Z,2.93
2023-03-08T03:57:38.942Z,2.92
2023-03-08T04:00:10.039Z,2.82
2023-03-08T04:02:37.908Z,2.73
2023-03-08T04:05:06.362Z,2.68
2023-03-08T04:07:34.360Z,2.65
2023-03-08T04:10:02.280Z,2.99
2023-03-08T04:12:30.109Z,3.21
2023-03-08T04:14:57.958Z,3.00
2023-03-08T04:17:25.909Z,2.93
2023-03-08T04:19:53.841Z,3.23
2023-03-08T04:22:21.718Z,3.16
2023-03-08T04:24:49.622Z,2.99
2023-03-08T04:27:17.510Z,3.03
2023-03-08T04:29:45.331Z,3.02
2023-03-08T04:32:13.559Z,3.07
2023-03-08T04:34:42.945Z,3.05
2023-03-08T04:37:12.804Z,3.27
2023-03-08T04:39:40.681Z,2.94
2023-03-08T04:42:08.617Z,3.06
2023-03-08T04:44:36.512Z,3.32
2023-03-08T04:47:04.588Z,3.29
2023-03-08T04:49:34.538Z,1.94
2023-03-08T04:52:02.524Z,2.78
2023-03-08T04:54:30.491Z,2.91
2023-03-08T04:57:00.722Z,2.44
2023-03-08T04:59:28.625Z,2.88
2023-03-08T05:01:56.607Z,2.53
2023-03-08T05:04:24.565Z,3.04
2023-03-08T05:06:52.504Z,2.99
2023-03-08T05:09:20.333Z,2.78
2023-03-08T05:11:48.201Z,2.92
2023-03-08T05:14:16.039Z,3.11
2023-03-08T05:16:43.939Z,3.32
2023-03-08T05:19:12.166Z,3.51
2023-03-08T05:21:40.073Z,3.58
2023-03-08T05:24:07.988Z,3.48
2023-03-08T05:26:35.966Z,3.38
2023-03-08T05:29:06.301Z,3.43
2023-03-08T05:31:36.509Z,3.43
2023-03-08T05:34:04.421Z,3.32
2023-03-08T05:36:32.306Z,3.49
2023-03-08T05:39:00.145Z,3.62
2023-03-08T05:41:27.978Z,3.67
2023-03-08T05:43:58.495Z,3.63
2023-03-08T05:46:26.381Z,3.63
2023-03-08T05:48:54.226Z,3.59
2023-03-08T05:51:22.172Z,3.61
2023-03-08T05:53:50.083Z,3.63
2023-03-08T05:56:22.323Z,3.55
2023-03-08T05:58:51.695Z,3.65
2023-03-08T06:01:23.763Z,3.59
2023-03-08T06:03:57.303Z,3.48
2023-03-08T06:06:28.141Z,3.48
2023-03-08T06:08:56.340Z,3.53
2023-03-08T06:11:25.174Z,3.56
2023-03-08T06:13:54.361Z,3.52
2023-03-08T06:16:22.258Z,3.52
2023-03-08T06:18:50.097Z,3.58
2023-03-08T06:21:22.611Z,3.62
2023-03-08T06:23:51.784Z,3.67
2023-03-08T06:26:20.125Z,3.74
2023-03-08T06:28:47.984Z,3.69
2023-03-08T06:31:18.887Z,3.68
2023-03-08T06:33:46.790Z,3.73
2023-03-08T06:36:19.800Z,3.85
2023-03-08T06:38:49.077Z,3.81
2023-03-08T06:41:23.594Z,4.07
2023-03-08T06:43:51.453Z,3.96
2023-03-08T06:46:20.363Z,3.75
2023-03-08T06:48:51.649Z,3.84
2023-03-08T06:51:19.734Z,3.99
2023-03-08T06:53:48.321Z,4.07
2023-03-08T06:56:17.823Z,3.84
2023-03-08T06:58:45.738Z,3.87
2023-03-08T07:01:14.651Z,3.99
2023-03-08T07:03:44.786Z,4.01
2023-03-08T07:06:13.732Z,4.30
2023-03-08T07:08:42.086Z,4.28
2023-03-08T07:11:10.782Z,4.11
2023-03-08T07:13:39.060Z,4.13
2023-03-08T07:16:12.041Z,4.12
2023-03-08T07:18:41.081Z,4.15
2023-03-08T07:21:10.322Z,4.24
2023-03-08T07:23:38.254Z,4.25
2023-03-08T07:26:08.148Z,4.33
2023-03-08T07:28:36.189Z,4.35
2023-03-08T07:31:04.346Z,4.26
2023-03-08T07:33:32.486Z,4.22
2023-03-08T07:36:02.304Z,4.10
2023-03-08T07:38:30.310Z,4.40
2023-03-08T07:40:58.602Z,4.24
2023-03-08T07:43:26.633Z,4.49
2023-03-08T07:45:54.663Z,4.58
2023-03-08T07:48:22.599Z,4.75
2023-03-08T07:50:50.597Z,4.90
2023-03-08T07:53:18.524Z,4.64
2023-03-08T07:55:46.407Z,4.87
2023-03-08T07:58:15.094Z,4.86
2023-03-08T08:00:48.638Z,4.69
2023-03-08T08:03:33.414Z,4.89
2023-03-08T08:06:07.248Z,5.04
2023-03-08T08:08:45.129Z,5.00
2023-03-08T08:11:17.536Z,5.08
2023-03-08T08:13:47.177Z,5.32
2023-03-08T08:16:17.197Z,5.08
2023-03-08T08:18:52.794Z,5.15
2023-03-08T08:21:21.290Z,5.10
2023-03-08T08:23:49.533Z,4.99
2023-03-08T08:26:22.270Z,5.23
2023-03-08T08:28:54.502Z,4.95
2023-03-08T08:31:36.108Z,5.32
2023-03-08T08:34:04.217Z,5.39
2023-03-08T08:36:38.733Z,5.16
2023-03-08T08:39:23.054Z,5.13
2023-03-08T08:41:53.559Z,5.13
2023-03-08T08:44:21.572Z,5.58
2023-03-08T08:46:52.587Z,5.56
2023-03-08T08:49:20.696Z,5.88
2023-03-08T08:51:48.671Z,5.47
2023-03-08T08:54:16.765Z,6.04
2023-03-08T08:56:45.691Z,5.95
2023-03-08T08:59:20.145Z,6.16
2023-03-08T09:01:48.885Z,5.99
2023-03-08T09:04:17.208Z,5.93
2023-03-08T09:06:45.280Z,6.23
2023-03-08T09:09:13.209Z,5.90
2023-03-08T09:11:53.848Z,6.26
2023-03-08T09:14:23.265Z,6.14
2023-03-08T09:16:52.687Z,5.46
2023-03-08T09:19:20.807Z,5.80
2023-03-08T09:21:48.766Z,6.34
2023-03-08T09:24:17.123Z,5.92
2023-03-08T09:26:44.986Z,6.28
2023-03-08T09:29:13.185Z,6.23
2023-03-08T09:31:43.519Z,5.92
2023-03-08T09:34:14.789Z,6.22
2023-03-08T09:36:43.248Z,5.94
2023-03-08T09:39:13.777Z,5.51
2023-03-08T09:42:00.034Z,6.13
2023-03-08T09:45:01.836Z,5.59
2023-03-08T09:47:35.259Z,6.46
2023-03-08T09:50:59.457Z,6.38
2023-03-08T09:54:03.036Z,6.72
2023-03-08T09:56:46.330Z,6.61
2023-03-08T09:59:41.059Z,6.59
2023-03-08T10:02:17.567Z,6.74
2023-03-08T10:05:29.997Z,6.90
2023-03-08T10:08:33.966Z,7.16
2023-03-08T10:11:24.274Z,7.05
2023-03-08T10:13:58.611Z,7.11
2023-03-08T10:16:36.568Z,7.01
2023-03-08T10:20:06.661Z,6.98
2023-03-08T10:22:42.496Z,7.42
2023-03-08T10:25:33.878Z,7.35
2023-03-08T10:28:11.668Z,7.32
2023-03-08T10:30:58.841Z,7.61
2023-03-08T10:33:38.441Z,8.00
2023-03-08T10:36:21.747Z,7.69
2023-03-08T10:39:09.825Z,7.74
2023-03-08T10:41:57.013Z,8.05
2023-03-08T10:44:48.496Z,8.15
2023-03-08T10:47:34.748Z,8.06
2023-03-08T10:50:19.786Z,8.26
2023-03-08T10:52:51.810Z,8.48
2023-03-08T10:55:29.537Z,8.71
2023-03-08T10:58:01.914Z,7.99
2023-03-08T11:00:40.856Z,8.06
2023-03-08T11:03:25.407Z,7.93
2023-03-08T11:06:12.416Z,8.34
2023-03-08T11:09:00.034Z,8.67
2023-03-08T11:11:28.722Z,8.47
2023-03-08T11:13:56.998Z,9.07
2023-03-08T11:16:55.736Z,8.73
2023-03-08T11:20:10.953Z,8.80
2023-03-08T11:23:20.949Z,8.84
2023-03-08T11:26:12.053Z,8.79
2023-03-08T11:29:22.311Z,8.41
2023-03-08T11:32:40.911Z,8.64
2023-03-08T11:35:32.965Z,8.96
2023-03-08T11:38:28.606Z,8.89
2023-03-08T11:41:31.226Z,8.81
2023-03-08T11:44:31.637Z,7.96
2023-03-08T11:47:53.261Z,8.14
2023-03-08T11:50:46.046Z,8.19
2023-03-08T11:54:07.641Z,8.35
2023-03-08T11:57:01.485Z,8.19
2023-03-08T11:59:39.630Z,8.26
2023-03-08T12:02:25.749Z,7.70
2023-03-08T12:05:28.213Z,8.32
2023-03-08T12:08:12.061Z,7.72
2023-03-08T12:11:29.723Z,8.36
2023-03-08T12:14:22.937Z,8.71
2023-03-08T12:17:22.786Z,7.56
2023-03-08T12:19:51.767Z,7.07
2023-03-08T12:22:57.074Z,8.15
2023-03-08T12:25:37.901Z,8.15
2023-03-08T12:28:29.331Z,7.17
2023-03-08T12:31:28.379Z,8.28
2023-03-08T12:33:59.969Z,8.62
2023-03-08T12:36:43.296Z,8.66
2023-03-08T12:39:35.508Z,8.66
2023-03-08T12:42:11.902Z,8.81
2023-03-08T12:44:41.033Z,8.88
2023-03-08T12:47:22.175Z,8.96
2023-03-08T12:50:17.028Z,8.87
2023-03-08T12:52:45.090Z,8.60
2023-03-08T12:55:31.670Z,8.80
2023-03-08T12:58:04.436Z,8.92
2023-03-08T13:00:40.752Z,7.90
2023-03-08T13:03:14.273Z,8.17
2023-03-08T13:05:52.400Z,7.34
2023-03-08T13:08:39.946Z,7.48
2023-03-08T13:11:15.080Z,7.77
2023-03-08T13:13:58.071Z,7.58
2023-03-08T13:16:39.785Z,7.95
2023-03-08T13:19:30.737Z,8.14
2023-03-08T13:22:34.010Z,8.36
2023-03-08T13:25:45.516Z,7.71
2023-03-08T13:28:26.348Z,7.97
2023-03-08T13:31:13.019Z,8.41
2023-03-08T13:33:52.165Z,8.01
2023-03-08T13:36:32.493Z,8.20
2023-03-08T13:39:18.678Z,8.47
2023-03-08T13:41:48.596Z,8.37
2023-03-08T13:44:24.436Z,7.96
2023-03-08T13:47:16.835Z,8.32
2023-03-08T13:49:46.072Z,8.46
2023-03-08T13:52:24.897Z,7.71
2023-03-08T13:55:00.995Z,8.30
2023-03-08T13:57:36.908Z,8.35
2023-03-08T14:00:31.230Z,8.53
2023-03-08T14:03:01.911Z,8.46
2023-03-08T14:05:42.725Z,8.34
2023-03-08T14:08:36.993Z,8.12
2023-03-08T14:11:08.449Z,8.12
2023-03-08T14:13:39.214Z,7.63
2023-03-08T14:16:22.311Z,8.12
2023-03-08T14:18:50.374Z,7.93
2023-03-08T14:21:24.447Z,8.36
2023-03-08T14:24:02.825Z,8.38
2023-03-08T14:26:39.412Z,8.49
2023-03-08T14:29:21.510Z,7.49
2023-03-08T14:32:12.643Z,7.60
2023-03-08T14:34:45.828Z,6.75
2023-03-08T14:37:32.790Z,7.59
2023-03-08T14:40:29.666Z,7.76
2023-03-08T14:43:07.262Z,7.77
2023-03-08T14:46:07.236Z,7.48
2023-03-08T14:48:38.101Z,7.55
2023-03-08T14:51:18.754Z,7.13
2023-03-08T14:54:02.141Z,6.62
2023-03-08T14:56:30.822Z,6.96
2023-03-08T14:59:05.353Z,6.72
2023-03-08T15:01:37.405Z,7.17
2023-03-08T15:04:23.869Z,6.27
2023-03-08T15:06:54.696Z,6.53
2023-03-08T15:09:23.541Z,6.95
2023-03-08T15:11:53.921Z,6.96
2023-03-08T15:14:21.917Z,6.93
2023-03-08T15:16:51.096Z,6.54
2023-03-08T15:19:18.919Z,6.07
2023-03-08T15:21:47.179Z,6.42
2023-03-08T15:24:18.090Z,6.60
2023-03-08T15:26:46.671Z,6.30
2023-03-08T15:29:34.470Z,6.39
2023-03-08T15:32:05.176Z,5.90
2023-03-08T15:34:33.203Z,6.06
2023-03-08T15:37:01.121Z,6.23
2023-03-08T15:39:31.520Z,5.93
2023-03-08T15:42:00.481Z,5.93
2023-03-08T15:44:28.399Z,5.82
2023-03-08T15:46:56.416Z,6.36
2023-03-08T15:49:24.546Z,6.06
2023-03-08T15:51:55.199Z,5.84
2023-03-08T15:54:23.030Z,5.75
2023-03-08T15:56:51.187Z,5.53
2023-03-08T15:59:19.135Z,5.75
2023-03-08T16:01:47.052Z,5.53
2023-03-08T16:04:16.267Z,5.47
2023-03-08T16:06:44.201Z,5.53
2023-03-08T16:09:12.066Z,5.33
2023-03-08T16:11:39.970Z,5.11
2023-03-08T16:14:07.844Z,5.16
2023-03-08T16:16:45.214Z,4.95
2023-03-08T16:19:14.019Z,4.99
2023-03-08T16:21:42.005Z,5.13
2023-03-08T16:24:11.627Z,5.03
2023-03-08T16:26:39.509Z,4.61
2023-03-08T16:29:08.493Z,4.72
2023-03-08T16:31:36.590Z,4.86
2023-03-08T16:34:05.972Z,4.79
2023-03-08T16:36:34.232Z,4.81
2023-03-08T16:39:02.211Z,4.65
2023-03-08T16:41:30.224Z,4.97
2023-03-08T16:43:58.408Z,4.96
2023-03-08T16:46:26.455Z,5.11
2023-03-08T16:48:56.294Z,5.10
2023-03-08T16:51:28.548Z,5.06
2023-03-08T16:53:56.514Z,5.15
2023-03-08T16:56:29.315Z,5.26
2023-03-08T16:59:00.877Z,5.00
2023-03-08T17:01:29.625Z,4.88
2023-03-08T17:03:58.550Z,5.24
2023-03-08T17:06:31.303Z,4.57
2023-03-08T17:08:59.863Z,4.59
2023-03-08T17:11:32.967Z,4.34
2023-03-08T17:14:08.855Z,4.43
2023-03-08T17:16:37.755Z,4.44
2023-03-08T17:19:08.875Z,4.37
2023-03-08T17:21:38.796Z,4.15
2023-03-08T17:24:11.081Z,4.22
2023-03-08T17:26:48.264Z,4.25
2023-03-08T17:29:16.612Z,3.95
2023-03-08T17:31:45.044Z,3.95
2023-03-08T17:34:13.102Z,4.15
2023-03-08T17:36:41.239Z,4.12
2023-03-08T17:39:09.993Z,4.08
2023-03-08T17:41:38.845Z,4.14
2023-03-08T17:44:06.890Z,3.94
2023-03-08T17:46:35.194Z,3.96
2023-03-08T17:49:03.159Z,3.61
2023-03-08T17:51:32.917Z,3.73
2023-03-08T17:54:02.122Z,3.91
2023-03-08T17:56:32.092Z,3.81
2023-03-08T17:59:01.660Z,3.87
2023-03-08T18:01:31.924Z,3.87
2023-03-08T18:04:00.654Z,3.74
2023-03-08T18:06:41.459Z,3.56
2023-03-08T18:09:16.328Z,3.42
2023-03-08T18:11:44.551Z,3.63
2023-03-08T18:14:15.421Z,3.97
2023-03-08T18:16:44.846Z,3.92
2023-03-08T18:19:13.032Z,3.95
2023-03-08T18:21:41.804Z,3.89
2023-03-08T18:24:13.232Z,3.50
2023-03-08T18:26:41.425Z,3.46
2023-03-08T18:29:09.542Z,3.52
2023-03-08T18:31:38.354Z,3.46
2023-03-08T18:34:08.020Z,3.48
2023-03-08T18:36:37.481Z,3.30
2023-03-08T18:39:12.489Z,3.61
2023-03-08T18:41:40.694Z,3.81
2023-03-08T18:44:11.546Z,3.77
2023-03-08T18:46:39.927Z,3.85
2023-03-08T18:49:12.359Z,3.83
2023-03-08T18:51:42.876Z,3.72
2023-03-08T18:54:17.490Z,3.47
2023-03-08T18:56:45.367Z,3.69
2023-03-08T18:59:14.749Z,3.49
2023-03-08T19:01:42.953Z,3.62
2023-03-08T19:04:11.233Z,3.44
2023-03-08T19:06:39.298Z,3.34
2023-03-08T19:09:14.237Z,3.27
2023-03-08T19:11:43.220Z,3.57
2023-03-08T19:14:13.095Z,3.81
2023-03-08T19:16:44.749Z,3.57
2023-03-08T19:19:16.458Z,3.39
2023-03-08T19:21:48.549Z,3.45
2023-03-08T19:24:20.024Z,3.63
2023-03-08T19:26:55.120Z,3.51
2023-03-08T19:29:32.288Z,3.39
2023-03-08T19:32:05.453Z,3.27
2023-03-08T19:34:41.376Z,3.30
2023-03-08T19:37:13.155Z,3.28
2023-03-08T19:39:43.604Z,3.23
2023-03-08T19:42:16.669Z,3.20
2023-03-08T19:44:48.350Z,3.09
2023-03-08T19:47:17.658Z,3.08
2023-03-08T19:49:46.602Z,3.05
2023-03-08T19:52:14.596Z,3.23
2023-03-08T19:54:42.779Z,3.19
2023-03-08T19:57:11.069Z,3.27
2023-03-08T19:59:39.063Z,3.11
2023-03-08T20:02:08.875Z,3.15
2023-03-08T20:04:36.898Z,3.35
2023-03-08T20:07:04.861Z,3.17
2023-03-08T20:09:32.889Z,3.06
2023-03-08T20:12:00.826Z,3.12
2023-03-08T20:14:28.928Z,2.91
2023-03-08T20:16:59.064Z,2.59
2023-03-08T20:19:31.691Z,2.61
2023-03-08T20:22:00.401Z,2.77
2023-03-08T20:24:28.558Z,2.31
2023-03-08T20:26:56.935Z,2.62
2023-03-08T20:29:24.931Z,2.47
2023-03-08T20:31:52.894Z,2.47
2023-03-08T20:34:20.956Z,2.53
2023-03-08T20:36:49.120Z,2.80
2023-03-08T20:39:18.205Z,2.86
2023-03-08T20:41:46.137Z,2.95
2023-03-08T20:44:16.249Z,2.82
2023-03-08T20:46:44.106Z,2.79
2023-03-08T20:49:12.480Z,2.94
2023-03-08T20:51:40.382Z,2.90
2023-03-08T20:54:08.663Z,2.79
2023-03-08T20:56:36.829Z,2.65
2023-03-08T20:59:05.200Z,2.83
2023-03-08T21:01:33.587Z,2.88
2023-03-08T21:04:01.557Z,2.86
2023-03-08T21:06:31.662Z,2.77
2023-03-08T21:09:00.584Z,2.71
2023-03-08T21:11:30.992Z,2.63
2023-03-08T21:13:58.863Z,2.67
2023-03-08T21:16:29.055Z,2.50
2023-03-08T21:19:01.326Z,2.43
2023-03-08T21:21:35.354Z,2.64
2023-03-08T21:24:18.044Z,2.46
2023-03-08T21:26:46.294Z,2.57
2023-03-08T21:29:19.408Z,2.49
2023-03-08T21:31:53.006Z,2.65
2023-03-08T21:34:21.614Z,2.50
2023-03-08T21:36:49.768Z,2.51
2023-03-08T21:39:18.159Z,2.43
2023-03-08T21:41:48.756Z,2.63
2023-03-08T21:44:20.693Z,2.53
2023-03-08T21:46:52.879Z,2.24
2023-03-08T21:49:27.957Z,2.38
2023-03-08T21:51:58.248Z,2.23
2023-03-08T21:54:31.583Z,2.25
2023-03-08T21:56:59.887Z,2.22
2023-03-08T21:59:29.140Z,2.36
2023-03-08T22:01:58.694Z,2.34
2023-03-08T22:04:28.112Z,2.42
2023-03-08T22:06:56.924Z,2.57
2023-03-08T22:09:28.019Z,2.34
2023-03-08T22:11:58.370Z,2.34
2023-03-08T22:14:28.207Z,2.36
2023-03-08T22:16:56.510Z,2.41
2023-03-08T22:19:30.844Z,2.63
2023-03-08T22:21:58.864Z,2.55
2023-03-08T22:24:27.339Z,2.69
2023-03-08T22:26:55.176Z,2.74
2023-03-08T22:29:23.120Z,2.35
2023-03-08T22:31:51.568Z,2.43
2023-03-08T22:34:22.073Z,2.50
2023-03-08T22:36:49.953Z,2.60
2023-03-08T22:39:18.020Z,2.63
2023-03-08T22:41:45.886Z,2.47
2023-03-08T22:44:15.161Z,2.48
2023-03-08T22:46:43.143Z,2.50
2023-03-08T22:49:11.771Z,2.55
2023-03-08T22:51:41.886Z,2.49
2023-03-08T22:54:17.534Z,2.30
2023-03-08T22:56:48.255Z,2.39
2023-03-08T22:59:18.441Z,2.31
2023-03-08T23:01:46.345Z,2.57
2023-03-08T23:04:14.401Z,2.44
2023-03-08T23:06:42.323Z,2.23
2023-03-08T23:09:12.732Z,2.12
2023-03-08T23:11:42.247Z,2.53
2023-03-08T23:14:12.072Z,2.35
2023-03-08T23:16:46.369Z,2.32
2023-03-08T23:19:19.494Z,2.22
2023-03-08T23:21:50.992Z,2.53
2023-03-08T23:24:19.109Z,2.33
2023-03-08T23:26:47.046Z,2.42
2023-03-08T23:29:15.739Z,2.38
2023-03-08T23:31:46.538Z,2.57
2023-03-08T23:34:14.595Z,2.46
2023-03-08T23:36:42.454Z,2.56
2023-03-08T23:39:10.612Z,2.56
2023-03-08T23:41:40.633Z,2.78
2023-03-08T23:44:10.638Z,2.58
2023-03-08T23:46:39.065Z,2.73
2023-03-08T23:49:07.083Z,2.55
2023-03-08T23:51:34.924Z,2.39
2023-03-08T23:54:02.959Z,2.47
2023-03-08T23:56:38.696Z,2.50
2023-03-08T23:59:20.415Z,2.14
